sensor_id;sensor_type;location;lat;lon;timestamp;temperature;humidity
22132;DHT22;11232;51.748;19.390;2022-10-01T00:01:06;12.10;99.90
22132;DHT22;11232;51.748;19.390;2022-10-01T00:03:33;10.10;99.90
22132;DHT22;11232;51.748;19.390;2022-10-01T00:08:25;10.10;99.90
22132;DHT22;11232;51.748;19.390;2022-10-01T00:10:52;10.30;99.90
22132;DHT22;11232;51.748;19.390;2022-10-01T00:13:17;10.20;99.90
22132;DHT22;11232;51.748;19.390;2022-10-01T00:15:43;10.10;99.90
22132;DHT22;11232;51.748;19.390;2022-10-01T00:18:09;10.20;99.90
22132;DHT22;11232;51.748;19.390;2022-10-01T00:20:38;10.20;99.90
22132;DHT22;11232;51.748;19.390;2022-10-01T00:23:04;11.90;99.90
22132;DHT22;11232;51.748;19.390;2022-10-01T00:25:30;10.70;99.90
22132;DHT22;11232;51.748;19.390;2022-10-01T00:27:55;11.70;99.90
22132;DHT22;11232;51.748;19.390;2022-10-01T00:30:21;10.10;99.90
22132;DHT22;11232;51.748;19.390;2022-10-01T00:32:46;10.20;99.90
22132;DHT22;11232;51.748;19.390;2022-10-01T00:35:12;10.80;99.90
22132;DHT22;11232;51.748;19.390;2022-10-01T00:37:38;9.90;99.90
22132;DHT22;11232;51.748;19.390;2022-10-01T00:40:05;10.00;99.90
22132;DHT22;11232;51.748;19.390;2022-10-01T00:42:31;9.90;99.90
22132;DHT22;11232;51.748;19.390;2022-10-01T00:44:58;10.10;99.90
22132;DHT22;11232;51.748;19.390;2022-10-01T00:47:34;10.50;99.90
22132;DHT22;11232;51.748;19.390;2022-10-01T00:50:06;10.40;99.90
22132;DHT22;11232;51.748;19.390;2022-10-01T00:52:35;10.00;99.90
22132;DHT22;11232;51.748;19.390;2022-10-01T00:55:08;9.90;99.90
22132;DHT22;11232;51.748;19.390;2022-10-01T00:57:37;9.90;99.90
22132;DHT22;11232;51.748;19.390;2022-10-01T01:00:07;10.10;99.90
22132;DHT22;11232;51.748;19.390;2022-10-01T01:02:34;10.00;99.90
22132;DHT22;11232;51.748;19.390;2022-10-01T01:05:00;10.00;99.90
22132;DHT22;11232;51.748;19.390;2022-10-01T01:07:27;10.00;99.90
22132;DHT22;11232;51.748;19.390;2022-10-01T01:09:53;10.60;99.90
22132;DHT22;11232;51.748;19.390;2022-10-01T01:15:10;10.00;99.90
22132;DHT22;11232;51.748;19.390;2022-10-01T01:17:39;10.00;99.90
22132;DHT22;11232;51.748;19.390;2022-10-01T01:22:36;10.00;99.90
22132;DHT22;11232;51.748;19.390;2022-10-01T01:25:19;10.20;99.90
22132;DHT22;11232;51.748;19.390;2022-10-01T01:30:41;10.00;99.90
22132;DHT22;11232;51.748;19.390;2022-10-01T01:33:17;12.40;99.90
22132;DHT22;11232;51.748;19.390;2022-10-01T01:35:57;10.10;99.90
22132;DHT22;11232;51.748;19.390;2022-10-01T01:38:28;10.00;99.90
22132;DHT22;11232;51.748;19.390;2022-10-01T01:40:59;10.00;99.90
22132;DHT22;11232;51.748;19.390;2022-10-01T01:43:29;10.30;99.90
22132;DHT22;11232;51.748;19.390;2022-10-01T01:45:59;9.90;99.90
22132;DHT22;11232;51.748;19.390;2022-10-01T01:48:28;11.60;99.90
22132;DHT22;11232;51.748;19.390;2022-10-01T01:51:13;9.90;99.90
22132;DHT22;11232;51.748;19.390;2022-10-01T01:53:41;9.90;99.90
22132;DHT22;11232;51.748;19.390;2022-10-01T01:56:07;11.20;99.90
22132;DHT22;11232;51.748;19.390;2022-10-01T01:58:34;9.80;99.90
22132;DHT22;11232;51.748;19.390;2022-10-01T02:01:01;11.60;99.90
22132;DHT22;11232;51.748;19.390;2022-10-01T02:03:27;11.10;99.90
22132;DHT22;11232;51.748;19.390;2022-10-01T02:06:17;10.10;99.90
22132;DHT22;11232;51.748;19.390;2022-10-01T02:09:20;9.80;99.90
22132;DHT22;11232;51.748;19.390;2022-10-01T02:12:00;9.80;99.90
22132;DHT22;11232;51.748;19.390;2022-10-01T02:14:53;9.80;99.90
22132;DHT22;11232;51.748;19.390;2022-10-01T02:20:00;9.80;99.90
22132;DHT22;11232;51.748;19.390;2022-10-01T02:25:16;9.80;99.90
22132;DHT22;11232;51.748;19.390;2022-10-01T02:27:51;9.70;99.90
22132;DHT22;11232;51.748;19.390;2022-10-01T02:30:20;9.80;99.90
22132;DHT22;11232;51.748;19.390;2022-10-01T02:32:48;9.70;99.90
22132;DHT22;11232;51.748;19.390;2022-10-01T02:35:16;9.70;99.90
22132;DHT22;11232;51.748;19.390;2022-10-01T02:37:44;11.20;99.90
22132;DHT22;11232;51.748;19.390;2022-10-01T02:40:14;10.70;99.90
22132;DHT22;11232;51.748;19.390;2022-10-01T02:42:44;9.90;99.90
22132;DHT22;11232;51.748;19.390;2022-10-01T02:45:12;11.70;99.90
22132;DHT22;11232;51.748;19.390;2022-10-01T02:47:43;9.70;99.90
22132;DHT22;11232;51.748;19.390;2022-10-01T02:50:12;10.60;99.90
22132;DHT22;11232;51.748;19.390;2022-10-01T02:52:58;10.70;99.90
22132;DHT22;11232;51.748;19.390;2022-10-01T02:55:29;9.50;99.90
22132;DHT22;11232;51.748;19.390;2022-10-01T02:57:56;10.10;99.90
22132;DHT22;11232;51.748;19.390;2022-10-01T03:00:22;9.50;99.90
22132;DHT22;11232;51.748;19.390;2022-10-01T03:02:48;9.50;99.90
22132;DHT22;11232;51.748;19.390;2022-10-01T03:05:15;11.00;99.90
22132;DHT22;11232;51.748;19.390;2022-10-01T03:07:41;9.40;99.90
22132;DHT22;11232;51.748;19.390;2022-10-01T03:10:10;11.50;99.90
22132;DHT22;11232;51.748;19.390;2022-10-01T03:12:36;9.40;99.90
22132;DHT22;11232;51.748;19.390;2022-10-01T03:15:02;9.40;99.90
22132;DHT22;11232;51.748;19.390;2022-10-01T03:17:28;9.40;99.90
22132;DHT22;11232;51.748;19.390;2022-10-01T03:19:54;10.90;99.90
22132;DHT22;11232;51.748;19.390;2022-10-01T03:22:20;10.20;99.90
22132;DHT22;11232;51.748;19.390;2022-10-01T03:24:48;9.80;99.90
22132;DHT22;11232;51.748;19.390;2022-10-01T03:27:13;11.40;99.90
22132;DHT22;11232;51.748;19.390;2022-10-01T03:29:39;9.50;99.90
22132;DHT22;11232;51.748;19.390;2022-10-01T03:32:05;10.00;99.90
22132;DHT22;11232;51.748;19.390;2022-10-01T03:34:30;10.90;99.90
22132;DHT22;11232;51.748;19.390;2022-10-01T03:36:56;9.10;99.90
22132;DHT22;11232;51.748;19.390;2022-10-01T03:39:21;9.00;99.90
22132;DHT22;11232;51.748;19.390;2022-10-01T03:41:47;9.00;99.90
22132;DHT22;11232;51.748;19.390;2022-10-01T03:44:13;10.40;99.90
22132;DHT22;11232;51.748;19.390;2022-10-01T03:46:38;10.00;99.90
22132;DHT22;11232;51.748;19.390;2022-10-01T03:49:04;10.30;99.90
22132;DHT22;11232;51.748;19.390;2022-10-01T03:51:30;9.30;99.90
22132;DHT22;11232;51.748;19.390;2022-10-01T03:53:56;9.10;99.90
22132;DHT22;11232;51.748;19.390;2022-10-01T03:56:23;8.80;99.90
22132;DHT22;11232;51.748;19.390;2022-10-01T03:58:49;8.80;99.90
22132;DHT22;11232;51.748;19.390;2022-10-01T04:01:15;8.80;99.90
22132;DHT22;11232;51.748;19.390;2022-10-01T04:03:40;8.70;99.90
22132;DHT22;11232;51.748;19.390;2022-10-01T04:06:07;8.70;99.90
22132;DHT22;11232;51.748;19.390;2022-10-01T04:08:33;8.70;99.90
22132;DHT22;11232;51.748;19.390;2022-10-01T04:10:58;10.40;99.90
22132;DHT22;11232;51.748;19.390;2022-10-01T04:13:25;8.60;99.90
22132;DHT22;11232;51.748;19.390;2022-10-01T04:15:51;9.60;99.90
22132;DHT22;11232;51.748;19.390;2022-10-01T04:18:17;8.70;99.90
22132;DHT22;11232;51.748;19.390;2022-10-01T04:20:43;10.30;99.90
22132;DHT22;11232;51.748;19.390;2022-10-01T04:23:09;10.60;99.90
22132;DHT22;11232;51.748;19.390;2022-10-01T04:25:35;8.50;99.90
22132;DHT22;11232;51.748;19.390;2022-10-01T04:28:05;9.20;99.90
22132;DHT22;11232;51.748;19.390;2022-10-01T04:30:34;8.40;99.90
22132;DHT22;11232;51.748;19.390;2022-10-01T04:33:00;10.40;99.90
22132;DHT22;11232;51.748;19.390;2022-10-01T04:35:26;8.40;99.90
22132;DHT22;11232;51.748;19.390;2022-10-01T04:38:06;9.80;99.90
22132;DHT22;11232;51.748;19.390;2022-10-01T04:40:34;9.30;99.90
22132;DHT22;11232;51.748;19.390;2022-10-01T04:43:01;8.40;99.90
22132;DHT22;11232;51.748;19.390;2022-10-01T04:45:27;8.30;99.90
22132;DHT22;11232;51.748;19.390;2022-10-01T04:47:53;8.30;99.90
22132;DHT22;11232;51.748;19.390;2022-10-01T04:50:21;8.70;99.90
22132;DHT22;11232;51.748;19.390;2022-10-01T04:52:47;8.30;99.90
22132;DHT22;11232;51.748;19.390;2022-10-01T04:55:14;8.30;99.90
22132;DHT22;11232;51.748;19.390;2022-10-01T04:57:40;8.30;99.90
22132;DHT22;11232;51.748;19.390;2022-10-01T05:00:08;8.30;99.90
22132;DHT22;11232;51.748;19.390;2022-10-01T05:02:35;8.30;99.90
22132;DHT22;11232;51.748;19.390;2022-10-01T05:05:05;8.30;99.90
22132;DHT22;11232;51.748;19.390;2022-10-01T05:07:32;8.90;99.90
22132;DHT22;11232;51.748;19.390;2022-10-01T05:09:58;8.30;99.90
22132;DHT22;11232;51.748;19.390;2022-10-01T05:12:25;9.70;99.90
22132;DHT22;11232;51.748;19.390;2022-10-01T05:14:52;8.30;99.90
22132;DHT22;11232;51.748;19.390;2022-10-01T05:17:18;8.30;99.90
22132;DHT22;11232;51.748;19.390;2022-10-01T05:19:44;10.70;99.90
22132;DHT22;11232;51.748;19.390;2022-10-01T05:22:10;9.00;99.90
22132;DHT22;11232;51.748;19.390;2022-10-01T05:24:37;8.50;99.90
22132;DHT22;11232;51.748;19.390;2022-10-01T05:27:02;8.50;99.90
22132;DHT22;11232;51.748;19.390;2022-10-01T05:29:28;8.50;99.90
22132;DHT22;11232;51.748;19.390;2022-10-01T05:31:54;9.20;99.90
22132;DHT22;11232;51.748;19.390;2022-10-01T05:34:20;8.60;99.90
22132;DHT22;11232;51.748;19.390;2022-10-01T05:36:46;8.60;99.90
22132;DHT22;11232;51.748;19.390;2022-10-01T05:39:11;8.90;99.90
22132;DHT22;11232;51.748;19.390;2022-10-01T05:41:37;9.00;99.90
22132;DHT22;11232;51.748;19.390;2022-10-01T05:44:06;7.10;99.90
22132;DHT22;11232;51.748;19.390;2022-10-01T05:46:32;8.70;99.90
22132;DHT22;11232;51.748;19.390;2022-10-01T05:48:57;10.60;99.90
22132;DHT22;11232;51.748;19.390;2022-10-01T05:51:23;8.80;99.90
22132;DHT22;11232;51.748;19.390;2022-10-01T05:53:52;9.50;99.90
22132;DHT22;11232;51.748;19.390;2022-10-01T05:56:17;8.80;99.90
22132;DHT22;11232;51.748;19.390;2022-10-01T05:58:43;9.90;99.90
22132;DHT22;11232;51.748;19.390;2022-10-01T06:01:11;10.40;99.90
22132;DHT22;11232;51.748;19.390;2022-10-01T06:03:37;8.80;99.90
22132;DHT22;11232;51.748;19.390;2022-10-01T06:06:04;8.90;99.90
22132;DHT22;11232;51.748;19.390;2022-10-01T06:08:32;8.80;99.90
22132;DHT22;11232;51.748;19.390;2022-10-01T06:10:59;10.40;99.90
22132;DHT22;11232;51.748;19.390;2022-10-01T06:13:26;10.80;99.90
22132;DHT22;11232;51.748;19.390;2022-10-01T06:15:53;8.70;99.90
22132;DHT22;11232;51.748;19.390;2022-10-01T06:18:18;8.70;99.90
22132;DHT22;11232;51.748;19.390;2022-10-01T06:20:44;8.70;99.90
22132;DHT22;11232;51.748;19.390;2022-10-01T06:23:11;9.70;99.90
22132;DHT22;11232;51.748;19.390;2022-10-01T06:25:39;8.70;99.90
22132;DHT22;11232;51.748;19.390;2022-10-01T06:28:07;8.80;99.90
22132;DHT22;11232;51.748;19.390;2022-10-01T06:30:34;10.60;99.90
22132;DHT22;11232;51.748;19.390;2022-10-01T06:33:09;8.90;99.90
22132;DHT22;11232;51.748;19.390;2022-10-01T06:35:39;9.60;99.90
22132;DHT22;11232;51.748;19.390;2022-10-01T06:38:05;9.00;99.90
22132;DHT22;11232;51.748;19.390;2022-10-01T06:40:32;10.10;99.90
22132;DHT22;11232;51.748;19.390;2022-10-01T06:42:58;9.00;99.90
22132;DHT22;11232;51.748;19.390;2022-10-01T06:45:25;9.10;99.90
22132;DHT22;11232;51.748;19.390;2022-10-01T06:47:58;9.10;99.90
22132;DHT22;11232;51.748;19.390;2022-10-01T06:50:27;9.00;99.90
22132;DHT22;11232;51.748;19.390;2022-10-01T06:52:53;9.50;99.90
22132;DHT22;11232;51.748;19.390;2022-10-01T06:55:30;9.20;99.90
22132;DHT22;11232;51.748;19.390;2022-10-01T06:58:13;10.20;99.90
22132;DHT22;11232;51.748;19.390;2022-10-01T07:00:39;9.30;99.90
22132;DHT22;11232;51.748;19.390;2022-10-01T07:03:06;9.70;99.90
22132;DHT22;11232;51.748;19.390;2022-10-01T07:05:38;9.50;99.90
22132;DHT22;11232;51.748;19.390;2022-10-01T07:08:04;9.50;99.90
22132;DHT22;11232;51.748;19.390;2022-10-01T07:10:30;8.90;99.90
22132;DHT22;11232;51.748;19.390;2022-10-01T07:13:09;9.60;99.90
22132;DHT22;11232;51.748;19.390;2022-10-01T07:15:35;9.70;99.90
22132;DHT22;11232;51.748;19.390;2022-10-01T07:18:01;9.70;99.90
22132;DHT22;11232;51.748;19.390;2022-10-01T07:20:27;9.80;99.90
22132;DHT22;11232;51.748;19.390;2022-10-01T07:22:57;9.80;99.90
22132;DHT22;11232;51.748;19.390;2022-10-01T07:25:23;9.60;99.90
22132;DHT22;11232;51.748;19.390;2022-10-01T07:27:52;9.80;99.90
22132;DHT22;11232;51.748;19.390;2022-10-01T07:30:18;9.80;99.90
22132;DHT22;11232;51.748;19.390;2022-10-01T07:32:44;10.00;99.90
22132;DHT22;11232;51.748;19.390;2022-10-01T07:35:09;10.00;99.90
22132;DHT22;11232;51.748;19.390;2022-10-01T07:37:35;10.10;99.90
22132;DHT22;11232;51.748;19.390;2022-10-01T07:40:00;10.50;99.90
22132;DHT22;11232;51.748;19.390;2022-10-01T07:42:27;10.20;99.90
22132;DHT22;11232;51.748;19.390;2022-10-01T07:44:53;10.30;99.90
22132;DHT22;11232;51.748;19.390;2022-10-01T07:47:19;10.30;99.90
22132;DHT22;11232;51.748;19.390;2022-10-01T07:49:45;10.30;99.90
22132;DHT22;11232;51.748;19.390;2022-10-01T07:52:10;10.30;99.90
22132;DHT22;11232;51.748;19.390;2022-10-01T07:54:36;10.40;99.90
22132;DHT22;11232;51.748;19.390;2022-10-01T07:57:01;10.30;99.90
22132;DHT22;11232;51.748;19.390;2022-10-01T07:59:27;10.40;99.90
22132;DHT22;11232;51.748;19.390;2022-10-01T08:01:53;10.50;99.90
22132;DHT22;11232;51.748;19.390;2022-10-01T08:04:20;10.50;99.90
22132;DHT22;11232;51.748;19.390;2022-10-01T08:07:05;10.60;99.90
22132;DHT22;11232;51.748;19.390;2022-10-01T08:09:31;10.60;99.90
22132;DHT22;11232;51.748;19.390;2022-10-01T08:11:56;10.70;99.90
22132;DHT22;11232;51.748;19.390;2022-10-01T08:14:22;11.00;99.90
22132;DHT22;11232;51.748;19.390;2022-10-01T08:16:48;10.70;99.90
22132;DHT22;11232;51.748;19.390;2022-10-01T08:19:14;10.60;99.90
22132;DHT22;11232;51.748;19.390;2022-10-01T08:21:40;10.80;99.90
22132;DHT22;11232;51.748;19.390;2022-10-01T08:24:06;10.70;99.90
22132;DHT22;11232;51.748;19.390;2022-10-01T08:26:32;10.80;99.90
22132;DHT22;11232;51.748;19.390;2022-10-01T08:28:57;10.90;99.90
22132;DHT22;11232;51.748;19.390;2022-10-01T08:31:24;11.10;99.90
22132;DHT22;11232;51.748;19.390;2022-10-01T08:33:50;12.00;99.90
22132;DHT22;11232;51.748;19.390;2022-10-01T08:36:16;11.20;99.90
22132;DHT22;11232;51.748;19.390;2022-10-01T08:38:45;11.00;99.90
22132;DHT22;11232;51.748;19.390;2022-10-01T08:44:17;11.00;99.90
22132;DHT22;11232;51.748;19.390;2022-10-01T08:46:45;11.20;99.90
22132;DHT22;11232;51.748;19.390;2022-10-01T08:49:19;11.70;99.90
22132;DHT22;11232;51.748;19.390;2022-10-01T08:52:30;11.30;99.90
22132;DHT22;11232;51.748;19.390;2022-10-01T08:54:40;11.60;99.90
22132;DHT22;11232;51.748;19.390;2022-10-01T08:57:17;12.10;99.90
22132;DHT22;11232;51.748;19.390;2022-10-01T08:59:48;12.40;99.90
22132;DHT22;11232;51.748;19.390;2022-10-01T09:04:46;13.20;99.90
22132;DHT22;11232;51.748;19.390;2022-10-01T09:15:49;15.60;99.90
22132;DHT22;11232;51.748;19.390;2022-10-01T09:18:25;16.70;99.90
22132;DHT22;11232;51.748;19.390;2022-10-01T09:20:57;17.90;99.90
22132;DHT22;11232;51.748;19.390;2022-10-01T09:23:41;18.40;99.90
22132;DHT22;11232;51.748;19.390;2022-10-01T09:26:09;18.50;99.90
22132;DHT22;11232;51.748;19.390;2022-10-01T09:28:37;19.70;99.90
22132;DHT22;11232;51.748;19.390;2022-10-01T09:31:23;20.90;99.90
22132;DHT22;11232;51.748;19.390;2022-10-01T09:34:00;23.00;95.20
22132;DHT22;11232;51.748;19.390;2022-10-01T09:39:18;25.30;83.20
22132;DHT22;11232;51.748;19.390;2022-10-01T09:41:46;25.80;80.00
22132;DHT22;11232;51.748;19.390;2022-10-01T09:44:20;25.50;79.90
22132;DHT22;11232;51.748;19.390;2022-10-01T09:46:47;26.50;75.60
22132;DHT22;11232;51.748;19.390;2022-10-01T09:49:32;26.70;74.80
22132;DHT22;11232;51.748;19.390;2022-10-01T09:52:18;27.70;72.30
22132;DHT22;11232;51.748;19.390;2022-10-01T09:55:30;28.90;68.20
22132;DHT22;11232;51.748;19.390;2022-10-01T09:58:03;29.50;65.70
22132;DHT22;11232;51.748;19.390;2022-10-01T10:00:32;29.80;64.30
22132;DHT22;11232;51.748;19.390;2022-10-01T10:02:58;30.20;62.50
22132;DHT22;11232;51.748;19.390;2022-10-01T10:05:29;29.30;63.10
22132;DHT22;11232;51.748;19.390;2022-10-01T10:08:13;30.30;62.30
22132;DHT22;11232;51.748;19.390;2022-10-01T10:10:59;30.90;60.30
22132;DHT22;11232;51.748;19.390;2022-10-01T10:13:30;31.70;59.60
22132;DHT22;11232;51.748;19.390;2022-10-01T10:16:05;31.90;58.50
22132;DHT22;11232;51.748;19.390;2022-10-01T10:18:37;32.70;56.80
22132;DHT22;11232;51.748;19.390;2022-10-01T10:21:14;32.60;54.70
22132;DHT22;11232;51.748;19.390;2022-10-01T10:23:49;31.80;56.40
22132;DHT22;11232;51.748;19.390;2022-10-01T10:26:24;31.80;56.10
22132;DHT22;11232;51.748;19.390;2022-10-01T10:28:51;31.50;57.40
22132;DHT22;11232;51.748;19.390;2022-10-01T10:31:23;31.90;57.10
22132;DHT22;11232;51.748;19.390;2022-10-01T10:36:15;31.90;55.50
22132;DHT22;11232;51.748;19.390;2022-10-01T10:38:46;32.60;55.80
22132;DHT22;11232;51.748;19.390;2022-10-01T10:41:15;33.00;54.80
22132;DHT22;11232;51.748;19.390;2022-10-01T10:43:42;33.80;53.80
22132;DHT22;11232;51.748;19.390;2022-10-01T10:46:09;34.00;52.80
22132;DHT22;11232;51.748;19.390;2022-10-01T10:48:39;34.00;51.70
22132;DHT22;11232;51.748;19.390;2022-10-01T10:51:08;33.50;51.80
22132;DHT22;11232;51.748;19.390;2022-10-01T10:53:42;33.20;53.80
22132;DHT22;11232;51.748;19.390;2022-10-01T10:56:22;32.70;54.10
22132;DHT22;11232;51.748;19.390;2022-10-01T10:58:50;32.50;54.00
22132;DHT22;11232;51.748;19.390;2022-10-01T11:01:18;32.70;54.30
22132;DHT22;11232;51.748;19.390;2022-10-01T11:03:58;32.60;53.90
22132;DHT22;11232;51.748;19.390;2022-10-01T11:06:24;33.00;53.80
22132;DHT22;11232;51.748;19.390;2022-10-01T11:08:59;32.90;52.90
22132;DHT22;11232;51.748;19.390;2022-10-01T11:11:48;33.80;52.60
22132;DHT22;11232;51.748;19.390;2022-10-01T11:14:52;33.40;51.60
22132;DHT22;11232;51.748;19.390;2022-10-01T11:20:28;33.00;52.70
22132;DHT22;11232;51.748;19.390;2022-10-01T11:39:43;32.30;51.70
22132;DHT22;11232;51.748;19.390;2022-10-01T11:42:14;29.90;55.00
22132;DHT22;11232;51.748;19.390;2022-10-01T11:44:48;26.80;58.90
22132;DHT22;11232;51.748;19.390;2022-10-01T11:47:20;25.20;65.90
22132;DHT22;11232;51.748;19.390;2022-10-01T11:50:07;24.70;65.90
22132;DHT22;11232;51.748;19.390;2022-10-01T11:52:42;24.00;67.40
22132;DHT22;11232;51.748;19.390;2022-10-01T11:55:39;22.80;71.70
22132;DHT22;11232;51.748;19.390;2022-10-01T11:58:43;21.90;75.30
22132;DHT22;11232;51.748;19.390;2022-10-01T12:04:02;20.30;84.20
22132;DHT22;11232;51.748;19.390;2022-10-01T12:06:37;19.80;87.20
22132;DHT22;11232;51.748;19.390;2022-10-01T12:09:13;19.40;90.60
22132;DHT22;11232;51.748;19.390;2022-10-01T12:11:42;19.10;91.70
22132;DHT22;11232;51.748;19.390;2022-10-01T12:14:26;18.90;93.10
22132;DHT22;11232;51.748;19.390;2022-10-01T12:16:57;18.40;93.70
22132;DHT22;11232;51.748;19.390;2022-10-01T12:19:27;18.10;95.30
22132;DHT22;11232;51.748;19.390;2022-10-01T12:22:02;17.70;97.10
22132;DHT22;11232;51.748;19.390;2022-10-01T12:24:40;17.50;98.80
22132;DHT22;11232;51.748;19.390;2022-10-01T12:27:40;17.10;99.90
22132;DHT22;11232;51.748;19.390;2022-10-01T12:30:21;16.80;99.90
22132;DHT22;11232;51.748;19.390;2022-10-01T12:50:01;15.60;99.90
22132;DHT22;11232;51.748;19.390;2022-10-01T12:58:11;15.50;99.90
22132;DHT22;11232;51.748;19.390;2022-10-01T13:01:29;15.60;99.90
22132;DHT22;11232;51.748;19.390;2022-10-01T13:14:13;15.60;99.90
22132;DHT22;11232;51.748;19.390;2022-10-01T13:19:50;15.60;99.90
22132;DHT22;11232;51.748;19.390;2022-10-01T13:22:33;15.60;99.90
22132;DHT22;11232;51.748;19.390;2022-10-01T13:30:57;15.30;99.90
22132;DHT22;11232;51.748;19.390;2022-10-01T13:33:33;15.20;99.90
22132;DHT22;11232;51.748;19.390;2022-10-01T13:36:02;15.10;99.90
22132;DHT22;11232;51.748;19.390;2022-10-01T13:38:43;15.10;99.90
22132;DHT22;11232;51.748;19.390;2022-10-01T13:41:21;15.10;99.90
22132;DHT22;11232;51.748;19.390;2022-10-01T13:43:51;15.10;99.90
22132;DHT22;11232;51.748;19.390;2022-10-01T13:46:22;16.90;99.90
22132;DHT22;11232;51.748;19.390;2022-10-01T13:48:49;14.90;99.90
22132;DHT22;11232;51.748;19.390;2022-10-01T13:51:16;15.00;99.90
22132;DHT22;11232;51.748;19.390;2022-10-01T13:56:09;15.00;99.90
22132;DHT22;11232;51.748;19.390;2022-10-01T13:58:41;14.80;99.90
22132;DHT22;11232;51.748;19.390;2022-10-01T14:06:27;14.80;99.90
22132;DHT22;11232;51.748;19.390;2022-10-01T14:11:29;14.80;99.90
22132;DHT22;11232;51.748;19.390;2022-10-01T14:17:06;14.80;99.90
22132;DHT22;11232;51.748;19.390;2022-10-01T14:19:32;14.70;99.90
22132;DHT22;11232;51.748;19.390;2022-10-01T14:22:54;14.70;99.90
22132;DHT22;11232;51.748;19.390;2022-10-01T14:33:26;14.60;99.90
22132;DHT22;11232;51.748;19.390;2022-10-01T14:36:08;14.60;99.90
22132;DHT22;11232;51.748;19.390;2022-10-01T14:38:38;14.50;99.90
22132;DHT22;11232;51.748;19.390;2022-10-01T14:41:03;14.90;99.90
22132;DHT22;11232;51.748;19.390;2022-10-01T14:43:31;14.40;99.90
22132;DHT22;11232;51.748;19.390;2022-10-01T14:46:02;14.40;99.90
22132;DHT22;11232;51.748;19.390;2022-10-01T14:48:33;14.10;99.90
22132;DHT22;11232;51.748;19.390;2022-10-01T14:51:01;14.30;99.90
22132;DHT22;11232;51.748;19.390;2022-10-01T14:53:31;14.30;99.90
22132;DHT22;11232;51.748;19.390;2022-10-01T14:56:05;14.80;99.90
22132;DHT22;11232;51.748;19.390;2022-10-01T14:58:34;14.30;99.90
22132;DHT22;11232;51.748;19.390;2022-10-01T15:01:01;14.30;99.90
22132;DHT22;11232;51.748;19.390;2022-10-01T15:03:35;14.20;99.90
22132;DHT22;11232;51.748;19.390;2022-10-01T15:06:04;14.20;99.90
22132;DHT22;11232;51.748;19.390;2022-10-01T15:08:44;14.20;99.90
22132;DHT22;11232;51.748;19.390;2022-10-01T15:11:17;14.30;99.90
22132;DHT22;11232;51.748;19.390;2022-10-01T15:13:45;14.20;99.90
22132;DHT22;11232;51.748;19.390;2022-10-01T15:16:16;14.20;99.90
22132;DHT22;11232;51.748;19.390;2022-10-01T15:18:49;14.40;99.90
22132;DHT22;11232;51.748;19.390;2022-10-01T15:21:23;14.30;99.90
22132;DHT22;11232;51.748;19.390;2022-10-01T15:23:51;14.30;99.90
22132;DHT22;11232;51.748;19.390;2022-10-01T15:26:22;14.30;99.90
22132;DHT22;11232;51.748;19.390;2022-10-01T15:29:00;14.30;99.90
22132;DHT22;11232;51.748;19.390;2022-10-01T15:31:26;14.30;99.90
22132;DHT22;11232;51.748;19.390;2022-10-01T15:33:52;14.30;99.90
22132;DHT22;11232;51.748;19.390;2022-10-01T15:36:18;14.20;99.90
22132;DHT22;11232;51.748;19.390;2022-10-01T15:38:45;14.10;99.90
22132;DHT22;11232;51.748;19.390;2022-10-01T15:41:22;14.10;99.90
22132;DHT22;11232;51.748;19.390;2022-10-01T15:43:49;14.20;99.90
22132;DHT22;11232;51.748;19.390;2022-10-01T15:48:40;14.10;99.90
22132;DHT22;11232;51.748;19.390;2022-10-01T15:51:24;14.00;99.90
22132;DHT22;11232;51.748;19.390;2022-10-01T15:53:51;14.00;99.90
22132;DHT22;11232;51.748;19.390;2022-10-01T15:56:19;13.90;99.90
22132;DHT22;11232;51.748;19.390;2022-10-01T15:58:54;13.80;99.90
22132;DHT22;11232;51.748;19.390;2022-10-01T16:01:23;13.80;99.90
22132;DHT22;11232;51.748;19.390;2022-10-01T16:06:40;13.70;99.90
22132;DHT22;11232;51.748;19.390;2022-10-01T16:09:20;13.70;99.90
22132;DHT22;11232;51.748;19.390;2022-10-01T16:12:03;13.70;99.90
22132;DHT22;11232;51.748;19.390;2022-10-01T16:19:43;13.60;99.90
22132;DHT22;11232;51.748;19.390;2022-10-01T16:24:48;13.50;99.90
22132;DHT22;11232;51.748;19.390;2022-10-01T16:27:17;13.50;99.90
22132;DHT22;11232;51.748;19.390;2022-10-01T16:32:32;13.40;99.90
22132;DHT22;11232;51.748;19.390;2022-10-01T16:35:14;13.40;99.90
22132;DHT22;11232;51.748;19.390;2022-10-01T16:37:40;13.40;99.90
22132;DHT22;11232;51.748;19.390;2022-10-01T16:40:05;13.40;99.90
22132;DHT22;11232;51.748;19.390;2022-10-01T16:42:31;13.40;99.90
22132;DHT22;11232;51.748;19.390;2022-10-01T16:44:58;13.30;99.90
22132;DHT22;11232;51.748;19.390;2022-10-01T16:47:24;13.90;99.90
22132;DHT22;11232;51.748;19.390;2022-10-01T16:49:50;13.30;99.90
22132;DHT22;11232;51.748;19.390;2022-10-01T16:52:17;13.30;99.90
22132;DHT22;11232;51.748;19.390;2022-10-01T16:54:43;13.80;99.90
22132;DHT22;11232;51.748;19.390;2022-10-01T16:57:09;13.30;99.90
22132;DHT22;11232;51.748;19.390;2022-10-01T16:59:35;13.20;99.90
22132;DHT22;11232;51.748;19.390;2022-10-01T17:02:01;13.20;99.90
22132;DHT22;11232;51.748;19.390;2022-10-01T17:04:27;13.20;99.90
22132;DHT22;11232;51.748;19.390;2022-10-01T17:06:55;13.30;99.90
22132;DHT22;11232;51.748;19.390;2022-10-01T17:09:21;13.60;99.90
22132;DHT22;11232;51.748;19.390;2022-10-01T17:11:46;13.80;99.90
22132;DHT22;11232;51.748;19.390;2022-10-01T17:14:15;13.10;99.90
22132;DHT22;11232;51.748;19.390;2022-10-01T17:16:41;13.00;99.90
22132;DHT22;11232;51.748;19.390;2022-10-01T17:19:08;13.30;99.90
22132;DHT22;11232;51.748;19.390;2022-10-01T17:21:35;13.00;99.90
22132;DHT22;11232;51.748;19.390;2022-10-01T17:24:00;13.00;99.90
22132;DHT22;11232;51.748;19.390;2022-10-01T17:26:27;12.90;99.90
22132;DHT22;11232;51.748;19.390;2022-10-01T17:28:53;12.90;99.90
22132;DHT22;11232;51.748;19.390;2022-10-01T17:31:18;12.90;99.90
22132;DHT22;11232;51.748;19.390;2022-10-01T17:33:44;12.90;99.90
22132;DHT22;11232;51.748;19.390;2022-10-01T17:36:10;12.80;99.90
22132;DHT22;11232;51.748;19.390;2022-10-01T17:38:36;12.90;99.90
22132;DHT22;11232;51.748;19.390;2022-10-01T17:41:02;12.90;99.90
22132;DHT22;11232;51.748;19.390;2022-10-01T17:43:28;12.90;99.90
22132;DHT22;11232;51.748;19.390;2022-10-01T17:46:00;12.90;99.90
22132;DHT22;11232;51.748;19.390;2022-10-01T17:48:27;12.80;99.90
22132;DHT22;11232;51.748;19.390;2022-10-01T17:51:07;12.80;99.90
22132;DHT22;11232;51.748;19.390;2022-10-01T17:53:35;12.90;99.90
22132;DHT22;11232;51.748;19.390;2022-10-01T17:56:05;12.80;99.90